createdAt,value
2023-10-16T00:01:39.714Z,1.20
2023-10-16T00:04:07.411Z,1.70
2023-10-16T00:06:35.719Z,1.30
2023-10-16T00:09:15.966Z,1.33
2023-10-16T00:11:43.561Z,1.27
2023-10-16T00:14:36.559Z,1.10
2023-10-16T00:17:09.428Z,1.20
2023-10-16T00:19:39.823Z,1.23
2023-10-16T00:22:19.784Z,1.30
2023-10-16T00:24:49.624Z,1.17
2023-10-16T00:27:17.122Z,1.30
2023-10-16T00:29:44.815Z,1.40
2023-10-16T00:32:12.689Z,1.20
2023-10-16T00:34:40.465Z,1.17
2023-10-16T00:37:08.336Z,1.30
2023-10-16T00:39:36.846Z,1.33
2023-10-16T00:42:09.202Z,1.20
2023-10-16T00:44:36.128Z,1.30
2023-10-16T00:47:08.661Z,1.20
2023-10-16T00:49:40.121Z,1.70
2023-10-16T00:52:07.540Z,1.60
2023-10-16T00:54:40.553Z,1.63
2023-10-16T00:57:09.982Z,1.30
2023-10-16T00:59:36.940Z,1.40
2023-10-16T01:02:10.133Z,1.33
2023-10-16T01:04:38.328Z,1.20
2023-10-16T01:07:08.318Z,1.43
2023-10-16T01:09:37.028Z,1.40
2023-10-16T01:12:08.061Z,1.60
2023-10-16T01:14:39.007Z,1.50
2023-10-16T01:17:10.208Z,1.30
2023-10-16T01:19:38.340Z,1.20
2023-10-16T01:22:05.291Z,1.30
2023-10-16T01:24:32.174Z,1.50
2023-10-16T01:27:08.302Z,1.50
2023-10-16T01:29:35.450Z,1.60
2023-10-16T01:32:02.530Z,1.83
2023-10-16T01:34:33.163Z,1.60
2023-10-16T01:37:08.811Z,1.70
2023-10-16T01:39:54.932Z,1.47
2023-10-16T01:42:23.193Z,1.60
2023-10-16T01:44:53.163Z,1.63
2023-10-16T01:47:20.813Z,1.60
2023-10-16T01:49:51.685Z,1.60
2023-10-16T01:52:18.759Z,1.37
2023-10-16T01:54:47.764Z,1.33
2023-10-16T01:57:16.227Z,1.37
2023-10-16T01:59:49.200Z,1.50
2023-10-16T02:02:19.013Z,1.60
2023-10-16T02:04:46.459Z,1.50
2023-10-16T02:07:13.612Z,1.50
2023-10-16T02:09:40.930Z,1.40
2023-10-16T02:12:18.409Z,1.30
2023-10-16T02:14:47.399Z,1.70
2023-10-16T02:17:22.703Z,1.40
2023-10-16T02:19:51.607Z,1.57
2023-10-16T02:22:19.255Z,1.67
2023-10-16T02:24:50.732Z,1.53
2023-10-16T02:27:21.606Z,1.30
2023-10-16T02:29:50.826Z,1.50
2023-10-16T02:32:17.677Z,1.70
2023-10-16T02:34:44.919Z,1.40
2023-10-16T02:37:15.204Z,1.63
2023-10-16T02:39:52.505Z,1.33
2023-10-16T02:42:20.851Z,1.03
2023-10-16T02:44:48.891Z,1.50
2023-10-16T02:47:27.396Z,1.47
2023-10-16T02:49:56.459Z,1.30
2023-10-16T02:52:23.299Z,1.50
2023-10-16T02:54:50.316Z,1.27
2023-10-16T02:57:17.415Z,1.37
2023-10-16T02:59:47.455Z,1.30
2023-10-16T03:02:23.917Z,1.60
2023-10-16T03:04:55.785Z,1.60
2023-10-16T03:07:26.265Z,1.63
2023-10-16T03:09:53.954Z,1.80
2023-10-16T03:12:22.102Z,1.90
2023-10-16T03:14:58.835Z,1.87
2023-10-16T03:17:27.281Z,1.60
2023-10-16T03:19:56.523Z,1.50
2023-10-16T03:22:23.798Z,1.60
2023-10-16T03:24:53.107Z,1.63
2023-10-16T03:27:30.393Z,1.60
2023-10-16T03:29:58.912Z,1.43
2023-10-16T03:32:30.164Z,1.53
2023-10-16T03:34:58.854Z,1.40
2023-10-16T03:37:29.408Z,1.63
2023-10-16T03:40:04.915Z,1.40
2023-10-16T03:42:31.886Z,1.60
2023-10-16T03:44:58.727Z,1.53
2023-10-16T03:47:25.817Z,1.43
2023-10-16T03:49:52.913Z,1.30
2023-10-16T03:52:20.522Z,1.60
2023-10-16T03:54:47.434Z,1.37
2023-10-16T03:57:17.661Z,1.53
2023-10-16T03:59:45.627Z,1.77
2023-10-16T04:02:21.611Z,1.40
2023-10-16T04:04:50.206Z,1.80
2023-10-16T04:07:17.359Z,1.33
2023-10-16T04:10:05.198Z,1.47
2023-10-16T04:12:34.679Z,1.40
2023-10-16T04:15:16.581Z,1.40
2023-10-16T04:17:44.774Z,1.40
2023-10-16T04:20:30.165Z,1.37
2023-10-16T04:22:59.942Z,1.60
2023-10-16T04:25:36.535Z,1.90
2023-10-16T04:28:26.102Z,1.90
2023-10-16T04:30:54.020Z,1.50
2023-10-16T04:33:46.775Z,1.60
2023-10-16T04:36:34.157Z,1.30
2023-10-16T04:39:21.140Z,1.50
2023-10-16T04:42:11.010Z,1.60
2023-10-16T04:45:16.247Z,1.70
2023-10-16T04:47:56.958Z,1.60
2023-10-16T04:51:09.777Z,1.83
2023-10-16T04:53:27.053Z,1.57
2023-10-16T04:55:55.689Z,1.80
2023-10-16T04:58:24.693Z,1.73
2023-10-16T05:01:02.650Z,1.90
2023-10-16T05:03:45.016Z,1.97
2023-10-16T05:06:21.046Z,1.97
2023-10-16T05:08:59.599Z,1.97
2023-10-16T05:11:45.558Z,2.07
2023-10-16T05:14:20.289Z,1.70
2023-10-16T05:16:54.703Z,1.90
2023-10-16T05:19:24.307Z,1.80
2023-10-16T05:22:23.359Z,1.63
2023-10-16T05:25:08.671Z,1.70
2023-10-16T05:27:54.030Z,1.77
2023-10-16T05:30:39.568Z,1.90
2023-10-16T05:33:24.916Z,2.45
2023-10-16T05:36:10.269Z,1.90
2023-10-16T05:38:55.544Z,2.05
2023-10-16T05:41:41.029Z,1.83
2023-10-16T05:44:26.664Z,1.77
2023-10-16T05:47:12.044Z,2.97
2023-10-16T05:49:57.549Z,2.30
2023-10-16T05:52:42.870Z,1.47
2023-10-16T05:55:28.629Z,1.58
2023-10-16T05:58:14.010Z,1.70
2023-10-16T06:00:59.324Z,1.60
2023-10-16T06:03:44.955Z,1.87
2023-10-16T06:06:50.279Z,1.70
2023-10-16T06:09:35.570Z,1.83
2023-10-16T06:12:21.088Z,2.33
2023-10-16T06:14:48.649Z,2.00
2023-10-16T06:17:17.344Z,1.75
2023-10-16T06:19:44.494Z,1.80
2023-10-16T06:22:12.656Z,1.70
2023-10-16T06:24:45.901Z,1.60
2023-10-16T06:27:19.672Z,1.85
2023-10-16T06:29:54.790Z,1.38
2023-10-16T06:32:24.183Z,1.77
2023-10-16T06:35:02.334Z,1.85
2023-10-16T06:37:32.874Z,1.77
2023-10-16T06:40:06.272Z,1.63
2023-10-16T06:42:36.538Z,1.50
2023-10-16T06:45:09.626Z,1.80
2023-10-16T06:47:37.513Z,1.92
2023-10-16T06:50:27.064Z,2.00
2023-10-16T06:53:02.346Z,1.80
2023-10-16T06:55:29.821Z,1.90
2023-10-16T06:57:56.893Z,2.03
2023-10-16T07:00:44.030Z,1.85
2023-10-16T07:03:11.611Z,1.60
2023-10-16T07:05:45.074Z,1.95
2023-10-16T07:08:20.035Z,1.80
2023-10-16T07:10:50.622Z,1.75
2023-10-16T07:13:39.463Z,1.63
2023-10-16T07:16:08.536Z,1.52
2023-10-16T07:18:36.942Z,1.60
2023-10-16T07:21:07.516Z,1.40
2023-10-16T07:23:36.799Z,1.60
2023-10-16T07:26:09.176Z,1.52
2023-10-16T07:28:36.940Z,1.20
2023-10-16T07:31:04.502Z,1.60
2023-10-16T07:33:31.802Z,1.70
2023-10-16T07:36:02.786Z,1.70
2023-10-16T07:38:30.116Z,1.90
2023-10-16T07:41:01.131Z,1.88
2023-10-16T07:43:30.041Z,1.55
2023-10-16T07:46:13.827Z,2.05
2023-10-16T07:48:52.368Z,2.15
2023-10-16T07:51:26.960Z,1.98
2023-10-16T07:53:55.557Z,1.75
2023-10-16T07:56:26.196Z,1.75
2023-10-16T07:59:07.748Z,1.67
2023-10-16T08:01:55.468Z,1.65
2023-10-16T08:04:22.919Z,1.85
2023-10-16T08:06:54.683Z,1.60
2023-10-16T08:09:24.337Z,1.85
2023-10-16T08:11:59.523Z,1.95
2023-10-16T08:14:33.134Z,1.67
2023-10-16T08:17:05.800Z,1.73
2023-10-16T08:19:35.593Z,1.63
2023-10-16T08:22:08.637Z,1.60
2023-10-16T08:24:44.374Z,1.40
2023-10-16T08:27:20.999Z,1.75
2023-10-16T08:30:00.585Z,2.10
2023-10-16T08:32:46.387Z,1.73
2023-10-16T08:35:18.710Z,2.40
2023-10-16T08:40:21.612Z,1.70
2023-10-16T08:43:01.517Z,1.65
2023-10-16T08:45:30.519Z,1.58
2023-10-16T08:47:59.304Z,1.65
2023-10-16T08:50:41.587Z,1.63
2023-10-16T08:53:19.065Z,1.65
2023-10-16T08:55:46.165Z,1.70
2023-10-16T08:58:14.524Z,1.50
2023-10-16T09:00:41.798Z,1.40
2023-10-16T09:03:11.347Z,1.23
2023-10-16T09:05:38.272Z,1.70
2023-10-16T09:08:05.490Z,1.75
2023-10-16T09:10:32.420Z,1.45
2023-10-16T09:13:14.984Z,1.38
2023-10-16T09:15:48.965Z,1.73
2023-10-16T09:18:16.381Z,1.42
2023-10-16T09:20:43.866Z,1.13
2023-10-16T09:23:26.366Z,1.20
2023-10-16T09:25:56.988Z,1.70
2023-10-16T09:28:26.921Z,1.00
2023-10-16T09:31:09.167Z,1.23
2023-10-16T09:33:41.120Z,1.30
2023-10-16T09:36:24.707Z,1.33
2023-10-16T09:38:58.073Z,1.42
2023-10-16T09:41:26.377Z,2.13
2023-10-16T09:43:58.121Z,1.50
2023-10-16T09:46:42.973Z,2.00
2023-10-16T09:49:14.749Z,1.58
2023-10-16T09:51:59.468Z,1.20
2023-10-16T09:54:33.867Z,1.63
2023-10-16T09:57:01.527Z,1.60
2023-10-16T09:59:34.022Z,1.70
2023-10-16T10:02:11.085Z,1.35
2023-10-16T10:04:40.879Z,1.80
2023-10-16T10:07:14.504Z,1.70
2023-10-16T10:09:51.246Z,1.58
2023-10-16T10:12:24.974Z,1.42
2023-10-16T10:15:13.719Z,1.33
2023-10-16T10:17:42.567Z,1.30
2023-10-16T10:20:10.627Z,2.05
2023-10-16T10:22:39.161Z,1.30
2023-10-16T10:25:19.275Z,1.20
2023-10-16T10:27:47.424Z,1.30
2023-10-16T10:30:18.873Z,1.25
2023-10-16T10:32:53.388Z,1.40
2023-10-16T10:35:23.445Z,1.15
2023-10-16T10:37:53.041Z,1.20
2023-10-16T10:40:23.358Z,1.13
2023-10-16T10:42:58.287Z,1.33
2023-10-16T10:45:35.314Z,1.10
2023-10-16T10:48:08.106Z,0.98
2023-10-16T10:50:39.704Z,1.15
2023-10-16T10:53:16.490Z,1.52
2023-10-16T10:55:54.405Z,1.30
2023-10-16T10:58:25.177Z,1.17
2023-10-16T11:00:52.458Z,1.20
2023-10-16T11:03:33.644Z,1.40
2023-10-16T11:06:00.694Z,1.40
2023-10-16T11:08:35.156Z,1.35
2023-10-16T11:11:04.957Z,1.60
2023-10-16T11:13:32.092Z,1.65
2023-10-16T11:16:03.747Z,1.58
2023-10-16T11:18:31.357Z,1.63
2023-10-16T11:21:08.240Z,1.80
2023-10-16T11:23:45.545Z,1.55
2023-10-16T11:26:17.735Z,1.50
2023-10-16T11:28:50.356Z,1.98
2023-10-16T11:31:20.143Z,1.65
2023-10-16T11:34:07.584Z,1.60
2023-10-16T11:36:43.580Z,1.52
2023-10-16T11:39:20.668Z,1.67
2023-10-16T11:41:50.041Z,1.90
2023-10-16T11:44:17.981Z,1.60
2023-10-16T11:46:53.646Z,1.80
2023-10-16T11:49:21.732Z,1.58
2023-10-16T11:51:54.357Z,1.88
2023-10-16T11:54:25.351Z,1.70
2023-10-16T11:56:58.106Z,1.80
2023-10-16T11:59:26.431Z,2.00
2023-10-16T12:02:02.459Z,1.83
2023-10-16T12:04:31.586Z,1.50
2023-10-16T12:06:59.688Z,1.80
2023-10-16T12:09:29.343Z,1.80
2023-10-16T12:11:56.928Z,1.60
2023-10-16T12:14:25.357Z,1.85
2023-10-16T12:16:53.851Z,1.77
2023-10-16T12:19:21.150Z,1.73
2023-10-16T12:21:54.502Z,1.75
2023-10-16T12:24:24.401Z,1.85
2023-10-16T12:26:53.441Z,1.88
2023-10-16T12:29:20.476Z,2.03
2023-10-16T12:31:49.314Z,2.00
2023-10-16T12:34:19.644Z,1.90
2023-10-16T12:36:50.556Z,1.80
2023-10-16T12:39:18.134Z,1.90
2023-10-16T12:41:45.756Z,1.77
2023-10-16T12:44:13.098Z,1.90
2023-10-16T12:46:44.433Z,1.70
2023-10-16T12:49:11.604Z,1.90
2023-10-16T12:51:40.175Z,2.00
2023-10-16T12:54:07.840Z,2.00
2023-10-16T12:56:36.380Z,1.80
2023-10-16T12:59:04.648Z,2.00
2023-10-16T13:01:31.915Z,2.03
2023-10-16T13:04:01.929Z,1.80
2023-10-16T13:06:31.040Z,1.73
2023-10-16T13:08:58.566Z,2.17
2023-10-16T13:11:26.179Z,2.22
2023-10-16T13:13:57.061Z,1.85
2023-10-16T13:16:27.700Z,2.10
2023-10-16T13:18:58.775Z,1.90
2023-10-16T13:21:35.839Z,1.98
2023-10-16T13:24:10.593Z,2.05
2023-10-16T13:26:38.447Z,1.90
2023-10-16T13:29:10.175Z,2.05
2023-10-16T13:31:38.144Z,2.13
2023-10-16T13:34:15.201Z,2.22
2023-10-16T13:37:02.185Z,1.95
2023-10-16T13:39:32.787Z,2.10
2023-10-16T13:42:01.107Z,2.25
2023-10-16T13:44:30.157Z,2.20
2023-10-16T13:47:00.543Z,2.25
2023-10-16T13:49:29.964Z,1.85
2023-10-16T13:51:57.418Z,1.98
2023-10-16T13:54:26.155Z,2.10
2023-10-16T13:56:53.300Z,2.05
2023-10-16T13:59:20.167Z,2.13
2023-10-16T14:01:47.569Z,2.10
2023-10-16T14:04:15.994Z,2.08
2023-10-16T14:06:45.396Z,2.00
2023-10-16T14:09:12.713Z,2.00
2023-10-16T14:11:48.920Z,1.75
2023-10-16T14:14:20.454Z,2.63
2023-10-16T14:16:52.333Z,2.40
2023-10-16T14:19:23.940Z,2.03
2023-10-16T14:21:56.468Z,2.42
2023-10-16T14:24:28.241Z,2.60
2023-10-16T14:26:59.714Z,2.10
2023-10-16T14:29:29.769Z,2.13
2023-10-16T14:31:58.082Z,2.10
2023-10-16T14:34:26.845Z,1.90
2023-10-16T14:36:56.862Z,2.00
2023-10-16T14:39:30.287Z,2.13
2023-10-16T14:42:02.587Z,2.50
2023-10-16T14:44:29.498Z,2.40
2023-10-16T14:46:58.148Z,2.53
2023-10-16T14:49:28.210Z,2.28
2023-10-16T14:51:55.902Z,2.30
2023-10-16T14:54:24.046Z,2.67
2023-10-16T14:56:52.895Z,2.50
2023-10-16T14:59:28.559Z,2.58
2023-10-16T15:01:56.804Z,2.97
2023-10-16T15:04:25.817Z,2.75
2023-10-16T15:06:53.332Z,2.88
2023-10-16T15:09:20.431Z,2.90
2023-10-16T15:11:47.502Z,2.70
2023-10-16T15:14:14.503Z,2.70
2023-10-16T15:16:41.682Z,2.65
2023-10-16T15:19:09.286Z,2.58
2023-10-16T15:21:37.517Z,2.90
2023-10-16T15:24:05.902Z,2.92
2023-10-16T15:26:33.408Z,2.50
2023-10-16T15:29:01.514Z,2.40
2023-10-16T15:31:30.684Z,2.45
2023-10-16T15:33:58.050Z,2.60
2023-10-16T15:36:26.518Z,2.88
2023-10-16T15:38:53.424Z,3.80
2023-10-16T15:41:20.546Z,4.05
2023-10-16T15:43:53.040Z,3.47
2023-10-16T15:46:21.875Z,3.47
2023-10-16T15:48:48.935Z,2.72
2023-10-16T15:51:15.854Z,3.50
2023-10-16T15:53:47.408Z,3.00
2023-10-16T15:56:14.502Z,2.80
2023-10-16T15:58:41.399Z,3.05
2023-10-16T16:01:12.140Z,2.80
2023-10-16T16:06:27.725Z,2.97
2023-10-16T16:08:55.553Z,3.15
2023-10-16T16:11:28.446Z,3.35
2023-10-16T16:13:57.003Z,3.35
2023-10-16T16:16:23.933Z,2.97
2023-10-16T16:18:50.883Z,3.20
2023-10-16T16:21:17.848Z,2.90
2023-10-16T16:23:44.850Z,3.10
2023-10-16T16:26:11.767Z,3.00
2023-10-16T16:28:40.573Z,3.00
2023-10-16T16:31:08.753Z,3.33
2023-10-16T16:33:35.912Z,3.63
2023-10-16T16:36:03.517Z,3.25
2023-10-16T16:38:30.507Z,3.20
2023-10-16T16:40:57.398Z,3.10
2023-10-16T16:43:26.236Z,3.40
2023-10-16T16:45:53.276Z,3.05
2023-10-16T16:48:20.352Z,3.25
2023-10-16T16:50:47.729Z,3.83
2023-10-16T16:53:14.857Z,4.15
2023-10-16T16:55:41.875Z,3.85
2023-10-16T16:58:12.340Z,3.90
2023-10-16T17:00:39.491Z,4.28
2023-10-16T17:03:06.652Z,4.30
2023-10-16T17:05:36.005Z,4.70
2023-10-16T17:08:04.254Z,4.45
2023-10-16T17:10:31.725Z,4.45
2023-10-16T17:12:59.101Z,4.10
2023-10-16T17:15:26.048Z,3.80
2023-10-16T17:17:58.971Z,3.50
2023-10-16T17:20:27.070Z,3.90
2023-10-16T17:25:23.904Z,3.70
2023-10-16T17:27:52.331Z,3.63
2023-10-16T17:30:20.595Z,3.03
2023-10-16T17:32:50.642Z,3.05
2023-10-16T17:35:38.460Z,4.30
2023-10-16T17:38:10.552Z,3.20
2023-10-16T17:40:38.775Z,4.53
2023-10-16T17:43:05.681Z,4.30
2023-10-16T17:45:32.606Z,4.80
2023-10-16T17:47:59.692Z,3.38
2023-10-16T17:50:27.070Z,4.82
2023-10-16T17:52:55.121Z,3.45
2023-10-16T17:55:22.099Z,3.88
2023-10-16T17:57:50.310Z,3.50
2023-10-16T18:00:18.064Z,2.85
2023-10-16T18:02:48.404Z,3.95
2023-10-16T18:05:17.502Z,3.80
2023-10-16T18:07:46.232Z,4.20
2023-10-16T18:10:18.015Z,3.40
2023-10-16T18:12:45.867Z,3.17
2023-10-16T18:15:15.572Z,4.85
2023-10-16T18:17:43.945Z,3.90
2023-10-16T18:20:11.577Z,3.80
2023-10-16T18:22:40.041Z,3.67
2023-10-16T18:25:16.075Z,3.38
2023-10-16T18:27:43.009Z,4.40
2023-10-16T18:30:11.574Z,5.30
2023-10-16T18:32:40.882Z,5.15
2023-10-16T18:35:08.725Z,5.47
2023-10-16T18:37:36.320Z,6.50
2023-10-16T18:40:11.031Z,5.72
2023-10-16T18:42:38.317Z,5.50
2023-10-16T18:45:08.495Z,5.28
2023-10-16T18:47:35.633Z,5.40
2023-10-16T18:50:04.754Z,4.45
2023-10-16T18:52:32.264Z,4.20
2023-10-16T18:54:59.190Z,4.38
2023-10-16T18:57:26.156Z,3.75
2023-10-16T18:59:53.445Z,3.80
2023-10-16T19:02:20.403Z,4.28
2023-10-16T19:04:47.316Z,3.78
2023-10-16T19:07:15.183Z,4.85
2023-10-16T19:09:42.289Z,5.45
2023-10-16T19:12:09.686Z,4.82
2023-10-16T19:14:36.723Z,3.53
2023-10-16T19:17:05.009Z,3.40
2023-10-16T19:19:32.131Z,3.40
2023-10-16T19:21:59.034Z,3.35
2023-10-16T19:24:26.930Z,3.42
2023-10-16T19:26:56.233Z,3.30
2023-10-16T19:29:23.175Z,3.38
2023-10-16T19:31:50.402Z,3.08
2023-10-16T19:34:18.957Z,4.90
2023-10-16T19:36:47.293Z,3.78
2023-10-16T19:39:15.709Z,4.18
2023-10-16T19:41:49.199Z,4.38
2023-10-16T19:44:16.589Z,3.85
2023-10-16T19:46:43.605Z,3.83
2023-10-16T19:49:10.749Z,3.22
2023-10-16T19:51:38.554Z,3.10
2023-10-16T19:54:10.368Z,2.97
2023-10-16T19:56:37.843Z,2.85
2023-10-16T19:59:05.265Z,3.15
2023-10-16T20:01:34.822Z,3.22
2023-10-16T20:04:02.058Z,2.67
2023-10-16T20:06:31.476Z,2.95
2023-10-16T20:08:59.215Z,3.08
2023-10-16T20:11:28.729Z,2.70
2023-10-16T20:13:56.221Z,3.03
2023-10-16T20:16:23.205Z,3.20
2023-10-16T20:18:50.166Z,3.58
2023-10-16T20:21:19.907Z,4.00
2023-10-16T20:23:50.068Z,4.75
2023-10-16T20:26:18.659Z,4.40
2023-10-16T20:28:49.971Z,4.35
2023-10-16T20:31:19.032Z,4.88
2023-10-16T20:33:47.870Z,4.88
2023-10-16T20:36:15.303Z,4.35
2023-10-16T20:38:42.790Z,4.25
2023-10-16T20:41:10.052Z,4.20
2023-10-16T20:43:37.135Z,4.28
2023-10-16T20:46:05.132Z,3.80
2023-10-16T20:48:32.954Z,3.97
2023-10-16T20:51:00.892Z,5.30
2023-10-16T20:53:28.632Z,5.93
2023-10-16T20:55:55.784Z,5.10
2023-10-16T20:58:22.984Z,4.70
2023-10-16T21:00:50.586Z,4.65
2023-10-16T21:03:19.553Z,4.57
2023-10-16T21:05:47.177Z,4.32
2023-10-16T21:08:14.564Z,5.20
2023-10-16T21:10:41.983Z,6.03
2023-10-16T21:13:09.113Z,5.97
2023-10-16T21:15:36.313Z,7.55
2023-10-16T21:18:03.763Z,7.05
2023-10-16T21:20:30.841Z,7.20
2023-10-16T21:22:57.708Z,6.97
2023-10-16T21:25:27.768Z,7.00
2023-10-16T21:27:55.187Z,6.97
2023-10-16T21:30:23.267Z,5.72
2023-10-16T21:32:52.536Z,5.63
2023-10-16T21:35:23.399Z,5.55
2023-10-16T21:37:51.131Z,5.88
2023-10-16T21:40:23.441Z,5.95
2023-10-16T21:42:52.383Z,5.70
2023-10-16T21:45:19.935Z,5.57
2023-10-16T21:47:47.363Z,4.97
2023-10-16T21:50:14.467Z,4.90
2023-10-16T21:52:41.369Z,5.00
2023-10-16T21:55:08.792Z,5.82
2023-10-16T21:57:36.108Z,5.50
2023-10-16T22:00:13.912Z,5.50
2023-10-16T22:02:44.641Z,5.88
2023-10-16T22:05:13.367Z,5.32
2023-10-16T22:07:41.006Z,5.97
2023-10-16T22:10:11.294Z,5.60
2023-10-16T22:12:38.872Z,6.30
2023-10-16T22:15:11.819Z,5.72
2023-10-16T22:17:39.556Z,5.95
2023-10-16T22:20:10.049Z,5.68
2023-10-16T22:22:37.417Z,5.90
2023-10-16T22:25:08.185Z,6.00
2023-10-16T22:27:36.900Z,5.82
2023-10-16T22:30:06.275Z,5.70
2023-10-16T22:32:34.731Z,6.25
2023-10-16T22:35:05.362Z,5.82
2023-10-16T22:37:34.443Z,5.78
2023-10-16T22:40:03.644Z,5.65
2023-10-16T22:42:30.778Z,5.80
2023-10-16T22:44:58.973Z,6.28
2023-10-16T22:47:26.367Z,5.72
2023-10-16T22:49:55.080Z,6.20
2023-10-16T22:52:22.338Z,5.50
2023-10-16T22:54:49.406Z,5.53
2023-10-16T22:57:16.498Z,5.72
2023-10-16T22:59:43.916Z,6.45
2023-10-16T23:02:10.915Z,6.25
2023-10-16T23:04:42.204Z,6.80
2023-10-16T23:07:09.667Z,6.35
2023-10-16T23:09:37.241Z,6.35
2023-10-16T23:12:10.987Z,6.22
2023-10-16T23:15:34.223Z,5.60
2023-10-16T23:18:20.088Z,5.82
2023-10-16T23:20:50.931Z,6.03
2023-10-16T23:23:24.231Z,5.75
2023-10-16T23:26:03.596Z,5.47
2023-10-16T23:28:30.817Z,6.10
2023-10-16T23:31:03.088Z,6.55
2023-10-16T23:33:30.560Z,6.40
2023-10-16T23:36:01.279Z,6.53
2023-10-16T23:38:30.158Z,6.75
2023-10-16T23:41:00.332Z,6.93
2023-10-16T23:43:31.311Z,7.43
2023-10-16T23:46:00.952Z,7.60
2023-10-16T23:48:37.087Z,7.73
2023-10-16T23:51:14.865Z,7.97
2023-10-16T23:53:48.664Z,8.70
2023-10-16T23:56:19.985Z,8.70
2023-10-16T23:58:51.752Z,7.80
